createdAt,value
2022-08-05T00:02:19.294Z,96472.41
2022-08-05T00:04:55.884Z,96469.10
2022-08-05T00:07:59.034Z,96469.06
2022-08-05T00:10:12.785Z,96468.20
2022-08-05T00:12:55.993Z,96471.52
2022-08-05T00:15:55.578Z,96467.85
2022-08-05T00:18:21.502Z,96465.21
2022-08-05T00:20:50.898Z,96470.67
2022-08-05T00:23:44.685Z,96466.79
2022-08-05T00:26:08.465Z,96465.80
2022-08-05T00:28:37.122Z,96465.53
2022-08-05T00:31:07.623Z,96470.23
2022-08-05T00:34:53.413Z,96469.88
2022-08-05T00:37:11.307Z,96467.77
2022-08-05T00:39:14.030Z,96464.98
2022-08-05T00:41:55.077Z,96467.20
2022-08-05T00:44:30.398Z,96462.85
2022-08-05T00:47:02.110Z,96465.53
2022-08-05T00:49:51.259Z,96461.38
2022-08-05T00:52:28.239Z,96462.02
2022-08-05T00:54:56.473Z,96462.25
2022-08-05T00:57:25.406Z,96463.48
2022-08-05T00:59:59.967Z,96459.90
2022-08-05T01:02:27.865Z,96458.13
2022-08-05T01:04:55.772Z,96456.99
2022-08-05T01:07:23.946Z,96459.44
2022-08-05T01:09:59.900Z,96459.42
2022-08-05T01:12:29.678Z,96459.79
2022-08-05T01:15:04.084Z,96458.26
2022-08-05T01:17:53.712Z,96457.85
2022-08-05T01:20:44.776Z,96454.72
2022-08-05T01:23:45.511Z,96455.30
2022-08-05T01:26:45.623Z,96452.61
2022-08-05T01:29:23.146Z,96453.17
2022-08-05T01:31:58.607Z,96453.09
2022-08-05T01:34:31.192Z,96455.40
2022-08-05T01:37:32.712Z,96455.91
2022-08-05T01:41:20.972Z,96453.14
2022-08-05T01:45:12.359Z,96450.84
2022-08-05T01:48:54.365Z,96457.86
2022-08-05T01:52:38.407Z,96450.63
2022-08-05T01:55:42.352Z,96449.73
2022-08-05T01:58:59.383Z,96449.91
2022-08-05T02:02:00.427Z,96450.52
2022-08-05T02:05:47.760Z,96446.17
2022-08-05T02:09:16.477Z,96442.89
2022-08-05T02:12:58.461Z,96438.02
2022-08-05T02:15:59.342Z,96440.80
2022-08-05T02:19:13.658Z,96441.60
2022-08-05T02:22:38.372Z,96440.30
2022-08-05T02:26:12.444Z,96439.27
2022-08-05T02:29:58.830Z,96436.16
2022-08-05T02:33:12.813Z,96430.43
2022-08-05T02:36:52.645Z,96429.33
2022-08-05T02:40:22.581Z,96430.36
2022-08-05T02:44:06.172Z,96430.93
2022-08-05T02:48:11.499Z,96423.15
2022-08-05T02:52:03.177Z,96422.74
2022-08-05T02:55:54.139Z,96422.16
2022-08-05T02:59:27.099Z,96425.54
2022-08-05T03:03:16.402Z,96419.91
2022-08-05T03:06:59.624Z,96421.56
2022-08-05T03:10:11.292Z,96422.59
2022-08-05T03:14:03.289Z,96428.77
2022-08-05T03:17:54.254Z,96429.02
2022-08-05T03:21:33.162Z,96434.02
2022-08-05T03:25:32.402Z,96429.91
2022-08-05T03:28:36.354Z,96436.33
2022-08-05T03:31:56.946Z,96430.67
2022-08-05T03:34:53.698Z,96426.83
2022-08-05T03:38:04.745Z,96431.31
2022-08-05T03:41:33.110Z,96429.69
2022-08-05T03:44:29.080Z,96431.54
2022-08-05T03:47:18.540Z,96434.31
2022-08-05T03:50:38.793Z,96432.65
2022-08-05T03:55:50.630Z,96433.83
2022-08-05T03:57:41.775Z,96436.38
2022-08-05T04:00:51.410Z,96437.59
2022-08-05T04:04:21.325Z,96438.95
2022-08-05T04:08:29.661Z,96437.50
2022-08-05T04:11:52.776Z,96438.61
2022-08-05T04:15:24.342Z,96434.44
2022-08-05T04:19:12.397Z,96431.42
2022-08-05T04:22:41.919Z,96430.65
2022-08-05T04:26:00.561Z,96430.34
2022-08-05T04:29:49.089Z,96430.09
2022-08-05T04:33:04.247Z,96435.34
2022-08-05T04:36:45.872Z,96434.91
2022-08-05T04:40:30.051Z,96431.83
2022-08-05T04:43:22.012Z,96424.95
2022-08-05T04:47:13.650Z,96424.95
2022-08-05T04:51:01.692Z,96423.58
2022-08-05T04:54:26.453Z,96425.68
2022-08-05T04:57:36.995Z,96427.30
2022-08-05T05:00:53.711Z,96425.02
2022-08-05T05:04:21.603Z,96426.48
2022-08-05T05:08:06.336Z,96425.65
2022-08-05T05:11:53.281Z,96424.88
2022-08-05T05:15:59.428Z,96420.86
2022-08-05T05:19:23.562Z,96427.90
2022-08-05T05:25:49.612Z,96422.41
2022-08-05T05:29:40.969Z,96423.10
2022-08-05T05:34:01.716Z,96416.06
2022-08-05T05:37:59.117Z,96415.60
2022-08-05T05:41:18.693Z,96415.88
2022-08-05T05:45:07.264Z,96418.51
2022-08-05T05:48:48.389Z,96417.92
2022-08-05T05:52:40.594Z,96417.59
2022-08-05T05:56:26.066Z,96417.67
2022-08-05T05:59:23.734Z,96420.16
2022-08-05T06:02:00.678Z,96419.84
2022-08-05T06:04:35.551Z,96419.36
2022-08-05T06:07:07.919Z,96421.41
2022-08-05T06:10:01.638Z,96422.45
2022-08-05T06:12:29.308Z,96426.70
2022-08-05T06:15:23.592Z,96426.65
2022-08-05T06:17:54.920Z,96425.75
2022-08-05T06:21:07.849Z,96425.85
2022-08-05T06:23:44.034Z,96429.25
2022-08-05T06:26:21.420Z,96430.73
2022-08-05T06:28:52.701Z,96427.60
2022-08-05T06:31:30.488Z,96427.05
2022-08-05T06:34:09.261Z,96427.48
2022-08-05T06:36:58.052Z,96427.36
2022-08-05T06:39:30.047Z,96427.55
2022-08-05T06:42:04.171Z,96424.03
2022-08-05T06:44:41.097Z,96425.67
2022-08-05T06:48:52.945Z,96431.82
2022-08-05T06:52:03.470Z,96434.77
2022-08-05T06:55:08.670Z,96433.91
2022-08-05T07:01:27.765Z,96437.78
2022-08-05T07:04:26.429Z,96442.02
2022-08-05T07:06:54.562Z,96442.03
2022-08-05T07:09:24.847Z,96442.70
2022-08-05T07:11:55.737Z,96438.46
2022-08-05T07:14:46.844Z,96439.14
2022-08-05T07:17:59.114Z,96434.45
2022-08-05T07:20:37.182Z,96436.17
2022-08-05T07:22:57.653Z,96433.75
2022-08-05T07:25:56.501Z,96433.08
2022-08-05T07:28:17.241Z,96430.70
2022-08-05T07:30:50.349Z,96432.09
2022-08-05T07:33:36.577Z,96431.25
2022-08-05T07:36:20.200Z,96427.08
2022-08-05T07:39:01.803Z,96432.98
2022-08-05T07:42:08.645Z,96428.81
2022-08-05T07:44:43.274Z,96433.79
2022-08-05T07:47:15.229Z,96436.00
2022-08-05T07:49:54.683Z,96434.00
2022-08-05T07:52:32.528Z,96436.55
2022-08-05T07:55:02.785Z,96431.33
2022-08-05T07:57:57.354Z,96434.59
2022-08-05T08:00:27.119Z,96432.96
2022-08-05T08:03:15.124Z,96439.17
2022-08-05T08:05:49.454Z,96438.10
2022-08-05T08:08:19.844Z,96435.14
2022-08-05T08:10:49.188Z,96435.42
2022-08-05T08:13:22.095Z,96433.22
2022-08-05T08:16:35.755Z,96435.48
2022-08-05T08:18:49.947Z,96427.05
2022-08-05T08:21:19.048Z,96428.95
2022-08-05T08:24:01.768Z,96422.96
2022-08-05T08:26:32.996Z,96422.17
2022-08-05T08:29:21.540Z,96422.50
2022-08-05T08:31:52.796Z,96419.78
2022-08-05T08:34:30.389Z,96413.95
2022-08-05T08:37:03.262Z,96413.56
2022-08-05T08:39:44.222Z,96413.55
2022-08-05T08:42:33.980Z,96418.48
2022-08-05T08:45:17.857Z,96413.30
2022-08-05T08:48:11.703Z,96412.66
2022-08-05T08:51:03.389Z,96406.15
2022-08-05T08:53:40.183Z,96407.23
2022-08-05T08:56:22.217Z,96406.61
2022-08-05T08:58:50.793Z,96409.17
2022-08-05T09:01:23.541Z,96409.37
2022-08-05T09:03:58.362Z,96409.71
2022-08-05T09:06:30.949Z,96403.71
2022-08-05T09:09:02.851Z,96400.37
2022-08-05T09:11:52.400Z,96400.16
2022-08-05T09:14:57.193Z,96395.02
2022-08-05T09:17:40.423Z,96391.18
2022-08-05T09:20:04.853Z,96387.41
2022-08-05T09:23:07.711Z,96386.10
2022-08-05T09:26:01.098Z,96386.86
2022-08-05T09:29:08.800Z,96384.41
2022-08-05T09:32:42.298Z,96380.02
2022-08-05T09:34:26.004Z,96378.63
2022-08-05T09:36:59.330Z,96375.16
2022-08-05T09:39:41.538Z,96371.84
2022-08-05T09:42:24.335Z,96371.73
2022-08-05T09:45:17.392Z,96367.29
2022-08-05T09:47:56.449Z,96367.61
2022-08-05T09:50:48.915Z,96367.43
2022-08-05T09:53:25.794Z,96369.36
2022-08-05T09:56:04.830Z,96368.13
2022-08-05T09:58:41.945Z,96367.05
2022-08-05T10:01:15.546Z,96364.40
2022-08-05T10:04:13.713Z,96360.17
2022-08-05T10:07:01.551Z,96357.17
2022-08-05T10:10:14.079Z,96355.73
2022-08-05T10:12:58.854Z,96360.80
2022-08-05T10:15:34.628Z,96358.36
2022-08-05T10:18:25.132Z,96356.23
2022-08-05T10:21:06.378Z,96352.40
2022-08-05T10:23:59.253Z,96344.27
2022-08-05T10:26:32.541Z,96346.14
2022-08-05T10:29:10.776Z,96340.95
2022-08-05T10:32:52.807Z,96333.75
2022-08-05T10:34:31.077Z,96333.84
2022-08-05T10:37:03.611Z,96327.88
2022-08-05T10:40:04.233Z,96328.86
2022-08-05T10:42:33.659Z,96328.66
2022-08-05T10:45:20.993Z,96328.77
2022-08-05T10:48:30.629Z,96327.36
2022-08-05T10:50:58.830Z,96323.14
2022-08-05T10:53:55.008Z,96322.30
2022-08-05T10:56:28.936Z,96323.23
2022-08-05T10:59:12.807Z,96319.65
2022-08-05T11:02:14.788Z,96317.02
2022-08-05T11:05:11.057Z,96320.54
2022-08-05T11:08:01.830Z,96321.27
2022-08-05T11:10:50.190Z,96320.37
2022-08-05T11:13:57.563Z,96320.31
2022-08-05T11:16:47.540Z,96320.27
2022-08-05T11:20:16.516Z,96319.40
2022-08-05T11:22:49.844Z,96320.64
2022-08-05T11:26:04.963Z,96316.23
2022-08-05T11:28:44.169Z,96309.84
2022-08-05T11:31:58.243Z,96307.30
2022-08-05T11:34:14.894Z,96301.90
2022-08-05T11:36:52.767Z,96300.35
2022-08-05T11:39:55.322Z,96300.15
2022-08-05T11:42:28.523Z,96293.98
2022-08-05T11:45:05.388Z,96294.96
2022-08-05T11:47:49.986Z,96292.56
2022-08-05T11:50:25.357Z,96290.47
2022-08-05T11:52:57.596Z,96290.84
2022-08-05T11:55:31.827Z,96293.51
2022-08-05T11:58:09.906Z,96293.57
2022-08-05T12:00:44.101Z,96293.59
2022-08-05T12:03:28.493Z,96293.38
2022-08-05T12:06:02.072Z,96288.34
2022-08-05T12:08:52.018Z,96285.57
2022-08-05T13:20:01.909Z,96226.33
2022-08-05T13:28:24.362Z,96223.03
2022-08-05T13:32:21.493Z,96224.49
2022-08-05T13:38:57.548Z,96220.51
2022-08-05T13:41:58.378Z,96218.86
2022-08-05T13:45:43.316Z,96219.83
2022-08-05T13:51:36.483Z,96212.13
2022-08-05T13:54:25.108Z,96209.08
2022-08-05T13:57:17.084Z,96208.86
2022-08-05T14:00:41.639Z,96205.80
2022-08-05T14:06:29.611Z,96199.13
2022-08-05T14:09:04.221Z,96198.88
2022-08-05T14:12:04.331Z,96197.31
2022-08-05T14:14:40.307Z,96192.70
2022-08-05T14:17:36.963Z,96190.48
2022-08-05T14:20:27.212Z,96185.59
2022-08-05T14:23:24.552Z,96181.02
2022-08-05T14:26:10.637Z,96183.27
2022-08-05T14:29:15.954Z,96184.52
2022-08-05T14:32:02.296Z,96181.09
2022-08-05T14:34:35.433Z,96184.54
2022-08-05T14:37:08.720Z,96182.02
2022-08-05T14:39:49.620Z,96179.14
2022-08-05T14:42:26.056Z,96174.13
2022-08-05T14:45:00.636Z,96175.35
2022-08-05T14:48:04.903Z,96172.59
2022-08-05T14:50:44.606Z,96172.17
2022-08-05T14:53:44.199Z,96175.61
2022-08-05T14:56:13.335Z,96168.86
2022-08-05T14:58:47.752Z,96168.77
2022-08-05T15:01:48.239Z,96163.85
2022-08-05T15:04:15.799Z,96160.80
2022-08-05T15:06:49.898Z,96154.38
2022-08-05T15:09:51.374Z,96152.80
2022-08-05T15:13:28.499Z,96149.30
2022-08-05T15:16:13.158Z,96146.92
2022-08-05T15:18:41.293Z,96146.70
2022-08-05T15:21:09.113Z,96148.63
2022-08-05T15:23:38.474Z,96146.46
2022-08-05T15:26:06.185Z,96138.23
2022-08-05T15:28:34.287Z,96136.64
2022-08-05T15:31:05.699Z,96136.49
2022-08-05T15:34:04.738Z,96132.81
2022-08-05T15:36:25.636Z,96131.05
2022-08-05T15:40:39.786Z,96128.86
2022-08-05T15:41:56.425Z,96133.86
2022-08-05T15:44:28.102Z,96129.65
2022-08-05T15:47:05.483Z,96132.42
2022-08-05T15:49:58.495Z,96129.19
2022-08-05T15:52:29.383Z,96132.70
2022-08-05T15:55:18.990Z,96129.70
2022-08-05T15:57:51.311Z,96126.66
2022-08-05T16:00:30.495Z,96122.64
2022-08-05T16:03:15.745Z,96124.77
2022-08-05T16:05:47.434Z,96120.45
2022-08-05T16:08:23.048Z,96120.45
2022-08-05T16:11:02.517Z,96123.01
2022-08-05T16:13:35.068Z,96122.59
2022-08-05T16:16:07.775Z,96121.27
2022-08-05T16:18:51.848Z,96120.09
2022-08-05T16:21:59.950Z,96120.19
2022-08-05T16:24:40.171Z,96119.92
2022-08-05T16:27:04.147Z,96119.39
2022-08-05T16:29:50.890Z,96117.08
2022-08-05T16:32:29.551Z,96121.40
2022-08-05T16:35:01.545Z,96118.91
2022-08-05T16:38:16.886Z,96120.62
2022-08-05T16:40:51.780Z,96125.45
2022-08-05T16:43:25.161Z,96127.41
2022-08-05T16:46:05.192Z,96123.52
2022-08-05T16:48:37.477Z,96121.30
2022-08-05T16:51:09.023Z,96119.50
2022-08-05T16:54:03.913Z,96120.43
2022-08-05T16:56:28.700Z,96121.32
2022-08-05T16:58:57.314Z,96118.39
2022-08-05T17:01:24.629Z,96118.30
2022-08-05T17:04:09.968Z,96117.63
2022-08-05T17:06:37.266Z,96121.69
2022-08-05T17:09:19.266Z,96122.67
2022-08-05T17:11:48.667Z,96126.95
2022-08-05T17:14:34.322Z,96130.02
2022-08-05T17:17:14.858Z,96132.58
2022-08-05T17:19:47.085Z,96131.52
2022-08-05T17:22:44.813Z,96135.40
2022-08-05T17:26:02.303Z,96137.23
2022-08-05T17:29:33.287Z,96139.39
2022-08-05T17:32:32.184Z,96137.90
2022-08-05T17:35:23.118Z,96140.43
2022-08-05T17:37:51.457Z,96140.73
2022-08-05T17:40:35.429Z,96141.65
2022-08-05T17:43:47.048Z,96144.49
2022-08-05T17:46:36.330Z,96148.58
2022-08-05T17:49:59.875Z,96149.20
2022-08-05T17:53:11.401Z,96152.39
2022-08-05T17:56:19.424Z,96154.54
2022-08-05T17:59:40.047Z,96156.33
2022-08-05T18:02:53.922Z,96157.30
2022-08-05T18:06:12.160Z,96156.64
2022-08-05T18:09:25.323Z,96161.66
2022-08-05T18:12:53.612Z,96166.96
2022-08-05T18:16:01.325Z,96172.32
2022-08-05T18:19:12.305Z,96173.01
2022-08-05T18:22:24.468Z,96176.23
2022-08-05T18:25:57.439Z,96182.24
2022-08-05T18:29:10.415Z,96187.11
2022-08-05T18:32:28.238Z,96184.34
2022-08-05T18:36:00.818Z,96187.11
2022-08-05T18:39:42.094Z,96188.45
2022-08-05T18:42:39.411Z,96192.29
2022-08-05T18:45:58.348Z,96196.30
2022-08-05T18:49:08.410Z,96195.45
2022-08-05T18:52:32.602Z,96196.38
2022-08-05T18:55:41.390Z,96196.02
2022-08-05T18:58:50.977Z,96201.52
2022-08-05T19:02:03.369Z,96206.80
2022-08-05T19:06:12.764Z,96205.71
2022-08-05T19:08:35.309Z,96209.24
2022-08-05T19:12:00.231Z,96207.23
2022-08-05T19:15:10.662Z,96213.13
2022-08-05T19:18:38.336Z,96216.08
2022-08-05T19:21:51.679Z,96213.42
2022-08-05T19:25:00.324Z,96215.89
2022-08-05T19:28:16.341Z,96217.06
2022-08-05T19:31:26.324Z,96214.63
2022-08-05T19:34:38.463Z,96215.47
2022-08-05T19:38:04.264Z,96217.69
2022-08-05T19:40:30.950Z,96216.96
2022-08-05T19:43:04.965Z,96217.80
2022-08-05T19:45:33.279Z,96216.86
2022-08-05T19:48:05.340Z,96217.84
2022-08-05T19:50:32.765Z,96215.30
2022-08-05T19:53:09.659Z,96212.42
2022-08-05T19:56:15.367Z,96214.23
2022-08-05T19:58:29.390Z,96216.31
2022-08-05T20:00:57.763Z,96221.06
2022-08-05T20:03:24.337Z,96212.63
2022-08-05T20:05:55.764Z,96214.63
2022-08-05T20:08:24.450Z,96212.33
2022-08-05T20:10:52.251Z,96212.86
2022-08-05T20:13:30.054Z,96214.23
2022-08-05T20:15:57.817Z,96223.02
2022-08-05T20:18:33.941Z,96226.79
2022-08-05T20:21:05.044Z,96227.58
2022-08-05T20:23:58.321Z,96226.61
2022-08-05T20:27:11.009Z,96224.03
2022-08-05T20:47:20.124Z,96218.48
2022-08-05T20:51:15.613Z,96215.92
2022-08-05T20:55:54.899Z,96210.49
2022-08-05T21:16:16.601Z,96211.06
2022-08-05T21:27:08.595Z,96215.63
2022-08-05T21:33:56.110Z,96215.77
2022-08-05T21:45:51.541Z,96215.64
2022-08-05T22:07:59.002Z,96214.90
2022-08-05T22:11:35.413Z,96220.48
2022-08-05T22:55:21.094Z,96203.48
2022-08-05T22:59:45.372Z,96196.64
2022-08-05T23:37:50.137Z,96195.95
2022-08-05T23:41:04.145Z,96197.86
2022-08-05T23:44:41.169Z,96195.02
2022-08-05T23:48:59.912Z,96194.27
2022-08-05T23:53:48.715Z,96194.38
